Time;durP1;ratioP1;P1;durP2;ratioP2;P2;SDS_P1;SDS_P2;PMS_P1;PMS_P2;Temp;Humidity;BMP_temperature;BMP_pressure;BME280_temperature;BME280_humidity;BME280_pressure;Samples;Min_cycle;Max_cycle;Signal;HPM_P1;HPM_P2
2022/12/24 00:00:28;;;;;;;28.83;15.95;;;;;;;;;;4975936;28;20043;-63
2022/12/24 00:02:54;;;;;;;26.60;14.45;;;;;;;;;;4975050;28;20047;-63
2022/12/24 00:05:20;;;;;;;32.90;15.82;;;;;;;;;;4973328;28;20054;-64
2022/12/24 00:07:46;;;;;;;26.02;14.00;;;;;;;;;;4983032;28;20412;-64
2022/12/24 00:10:12;;;;;;;25.48;13.77;;;;;;;;;;4992707;28;20046;-63
2022/12/24 00:12:39;;;;;;;27.20;14.68;;;;;;;;;;4992825;28;20527;-63
2022/12/24 00:15:05;;;;;;;28.10;14.70;;;;;;;;;;4992542;28;20057;-63
2022/12/24 00:17:31;;;;;;;32.22;14.93;;;;;;;;;;4992688;28;20635;-63
2022/12/24 00:19:57;;;;;;;37.55;16.92;;;;;;;;;;4992853;28;20130;-64
2022/12/24 00:22:23;;;;;;;33.50;16.35;;;;;;;;;;4992633;28;20050;-64
2022/12/24 00:24:50;;;;;;;34.60;16.05;;;;;;;;;;4991588;28;20050;-64
2022/12/24 00:27:16;;;;;;;31.55;15.68;;;;;;;;;;4992045;28;20108;-63
2022/12/24 00:29:42;;;;;;;41.70;18.70;;;;;;;;;;4983756;28;20053;-64
2022/12/24 00:32:09;;;;;;;44.28;20.13;;;;;;;;;;4974035;28;20046;-63
2022/12/24 00:34:38;;;;;;;48.15;20.55;;;;;;;;;;4956086;28;20082;-63
2022/12/24 00:37:05;;;;;;;33.50;18.63;;;;;;;;;;4976847;28;20038;-63
2022/12/24 00:39:31;;;;;;;36.28;17.65;;;;;;;;;;4990865;28;20047;-63
2022/12/24 00:41:57;;;;;;;32.05;16.92;;;;;;;;;;5002490;28;20050;-63
2022/12/24 00:44:23;;;;;;;36.95;18.00;;;;;;;;;;4973678;28;20053;-63
2022/12/24 00:46:49;;;;;;;39.85;19.33;;;;;;;;;;4980623;28;20053;-63
2022/12/24 00:49:16;;;;;;;33.05;16.98;;;;;;;;;;4992187;28;20085;-63
2022/12/24 00:51:42;;;;;;;38.38;17.75;;;;;;;;;;4992581;28;20096;-64
2022/12/24 00:54:08;;;;;;;44.15;18.00;;;;;;;;;;4992259;28;20563;-63
2022/12/24 00:56:34;;;;;;;35.40;17.35;;;;;;;;;;4975397;28;20483;-63
2022/12/24 00:59:00;;;;;;;38.25;18.80;;;;;;;;;;4992313;28;20057;-63
2022/12/24 01:01:26;;;;;;;39.88;16.95;;;;;;;;;;4991592;28;20093;-63
2022/12/24 01:05:09;;;;;;;43.05;19.02;;;;;;;;;;4991557;28;20042;-63
2022/12/24 01:06:39;;;;;;;45.22;19.60;;;;;;;;;;4991267;28;20141;-64
2022/12/24 01:09:05;;;;;;;42.00;20.23;;;;;;;;;;4991287;28;20142;-63
2022/12/24 01:11:31;;;;;;;45.58;21.23;;;;;;;;;;4975179;28;20045;-64
2022/12/24 01:13:57;;;;;;;41.60;18.13;;;;;;;;;;4992153;28;20403;-63
2022/12/24 01:16:23;;;;;;;40.95;18.88;;;;;;;;;;4991938;28;20057;-63
2022/12/24 01:18:49;;;;;;;40.15;17.65;;;;;;;;;;4991664;28;20755;-63
2022/12/24 01:21:16;;;;;;;34.92;16.00;;;;;;;;;;4992702;28;20706;-63
2022/12/24 01:23:42;;;;;;;38.20;16.95;;;;;;;;;;4990935;28;20514;-63
2022/12/24 01:26:11;;;;;;;37.63;16.45;;;;;;;;;;4994636;28;20050;-63
2022/12/24 01:28:37;;;;;;;32.13;14.48;;;;;;;;;;4975041;28;20058;-63
2022/12/24 01:31:09;;;;;;;34.65;15.25;;;;;;;;;;4974758;28;20047;-63
2022/12/24 01:33:35;;;;;;;32.75;13.07;;;;;;;;;;4991989;28;20502;-62
2022/12/24 01:36:02;;;;;;;28.55;13.88;;;;;;;;;;4988393;28;20038;-63
2022/12/24 01:38:28;;;;;;;25.70;12.05;;;;;;;;;;4991524;28;20556;-62
2022/12/24 01:43:39;;;;;;;27.23;11.68;;;;;;;;;;4977928;28;20051;-63
2022/12/24 01:46:11;;;;;;;24.80;11.25;;;;;;;;;;4982655;28;20049;-63
2022/12/24 01:48:44;;;;;;;26.35;11.70;;;;;;;;;;5018602;28;20479;-62
2022/12/24 01:51:29;;;;;;;21.25;9.55;;;;;;;;;;4997506;28;20088;-62
2022/12/24 01:54:02;;;;;;;31.50;12.40;;;;;;;;;;5014512;28;20394;-62
2022/12/24 01:56:29;;;;;;;20.13;9.50;;;;;;;;;;4989882;28;20567;-63
2022/12/24 01:58:57;;;;;;;25.40;11.02;;;;;;;;;;5008596;28;20100;-62
2022/12/24 02:01:23;;;;;;;25.88;10.65;;;;;;;;;;5005180;28;20042;-63
2022/12/24 02:03:49;;;;;;;31.90;11.75;;;;;;;;;;4997403;28;20406;-63
2022/12/24 02:06:16;;;;;;;28.73;10.60;;;;;;;;;;4995486;28;20049;-63
2022/12/24 02:08:42;;;;;;;24.85;9.43;;;;;;;;;;5014710;28;20171;-63
2022/12/24 02:11:09;;;;;;;29.50;10.60;;;;;;;;;;5014678;28;20046;-63
2022/12/24 02:13:35;;;;;;;26.65;10.32;;;;;;;;;;5012961;28;20491;-63
2022/12/24 02:16:04;;;;;;;28.52;9.98;;;;;;;;;;4998401;28;20082;-63
2022/12/24 02:18:39;;;;;;;33.85;9.15;;;;;;;;;;5006694;28;20048;-63
2022/12/24 02:21:15;;;;;;;20.15;7.43;;;;;;;;;;5014571;28;20054;-63
2022/12/24 02:23:59;;;;;;;25.35;6.13;;;;;;;;;;4979219;28;20049;-64
2022/12/24 02:26:25;;;;;;;39.92;5.13;;;;;;;;;;5013005;28;20403;-63
2022/12/24 02:29:10;;;;;;;35.42;6.57;;;;;;;;;;5012333;28;20048;-63
2022/12/24 02:31:52;;;;;;;31.95;6.00;;;;;;;;;;5008776;28;20091;-63
2022/12/24 02:34:21;;;;;;;24.88;4.25;;;;;;;;;;5008031;28;20598;-63
2022/12/24 02:36:49;;;;;;;33.47;4.63;;;;;;;;;;4993754;28;20069;-63
2022/12/24 02:39:18;;;;;;;47.35;5.88;;;;;;;;;;5013133;28;20053;-63
2022/12/24 02:42:06;;;;;;;45.85;5.22;;;;;;;;;;4994977;28;20078;-63
2022/12/24 02:44:55;;;;;;;38.35;4.63;;;;;;;;;;4997648;28;20053;-63
2022/12/24 02:47:22;;;;;;;42.88;5.28;;;;;;;;;;5005722;28;20064;-63
2022/12/24 02:49:48;;;;;;;43.60;6.78;;;;;;;;;;4993904;28;20044;-64
2022/12/24 02:52:31;;;;;;;36.38;5.10;;;;;;;;;;4995219;28;20046;-63
2022/12/24 02:54:58;;;;;;;30.63;4.85;;;;;;;;;;5027445;22;20056;-63
2022/12/24 02:57:30;;;;;;;26.13;5.07;;;;;;;;;;5030610;22;20067;-62
2022/12/24 03:00:07;;;;;;;43.40;6.85;;;;;;;;;;5073981;28;20118;-62
2022/12/24 03:02:45;;;;;;;33.65;4.20;;;;;;;;;;5071485;28;20048;-62
2022/12/24 03:05:26;;;;;;;43.63;6.88;;;;;;;;;;5072137;28;20052;-63
2022/12/24 03:07:52;;;;;;;34.58;4.32;;;;;;;;;;5054123;28;20045;-62
2022/12/24 03:10:37;;;;;;;34.67;4.85;;;;;;;;;;5070088;28;20508;-62
2022/12/24 03:16:02;;;;;;;39.15;6.00;;;;;;;;;;5097462;22;20066;-62
2022/12/24 03:18:29;;;;;;;22.40;4.22;;;;;;;;;;5081731;28;20048;-62
2022/12/24 03:20:57;;;;;;;34.90;4.97;;;;;;;;;;5076220;28;20040;-62
2022/12/24 03:23:24;;;;;;;32.72;4.40;;;;;;;;;;5072864;28;20052;-63
2022/12/24 03:25:50;;;;;;;29.25;4.30;;;;;;;;;;5069467;28;20052;-63
2022/12/24 03:28:17;;;;;;;34.05;5.28;;;;;;;;;;5086077;28;20404;-62
2022/12/24 03:30:45;;;;;;;29.40;5.00;;;;;;;;;;5084631;28;20396;-63
2022/12/24 03:33:14;;;;;;;29.80;4.43;;;;;;;;;;5056474;28;20063;-63
2022/12/24 03:35:40;;;;;;;31.23;4.85;;;;;;;;;;5037473;28;20052;-63
2022/12/24 03:38:06;;;;;;;26.45;4.60;;;;;;;;;;5055910;28;20044;-62
2022/12/24 03:40:32;;;;;;;36.65;5.40;;;;;;;;;;5064593;28;20055;-63
2022/12/24 03:42:58;;;;;;;38.30;6.57;;;;;;;;;;5065128;28;20045;-62
2022/12/24 03:45:24;;;;;;;28.02;5.93;;;;;;;;;;5071495;28;20047;-63
2022/12/24 03:47:50;;;;;;;36.00;4.35;;;;;;;;;;5067289;28;20044;-63
2022/12/24 03:50:16;;;;;;;36.58;4.88;;;;;;;;;;5072638;28;20046;-62
2022/12/24 03:52:43;;;;;;;41.50;5.85;;;;;;;;;;5051276;28;20071;-63
2022/12/24 03:55:09;;;;;;;30.13;5.35;;;;;;;;;;5065060;28;20040;-63
2022/12/24 03:57:35;;;;;;;39.53;5.45;;;;;;;;;;5073517;28;20040;-63
2022/12/24 04:00:01;;;;;;;39.10;6.15;;;;;;;;;;5065962;28;20044;-63
2022/12/24 04:02:27;;;;;;;47.13;5.53;;;;;;;;;;5057575;28;20477;-64
2022/12/24 04:04:53;;;;;;;46.67;6.25;;;;;;;;;;5060579;28;20036;-64
2022/12/24 04:07:19;;;;;;;35.92;5.88;;;;;;;;;;5079941;28;20052;-63
2022/12/24 04:09:45;;;;;;;40.78;7.47;;;;;;;;;;5074122;28;20118;-64
2022/12/24 04:12:11;;;;;;;45.15;8.05;;;;;;;;;;5071004;28;20835;-64
2022/12/24 04:14:37;;;;;;;42.10;4.90;;;;;;;;;;5057296;28;20053;-63
2022/12/24 04:17:03;;;;;;;43.38;4.93;;;;;;;;;;5048876;28;20106;-64
2022/12/24 04:19:29;;;;;;;28.55;4.07;;;;;;;;;;5054126;28;20128;-64
2022/12/24 04:21:55;;;;;;;42.78;5.20;;;;;;;;;;5071247;28;20128;-64
2022/12/24 04:24:21;;;;;;;48.63;7.55;;;;;;;;;;5071722;28;20119;-63
2022/12/24 04:26:47;;;;;;;42.67;5.88;;;;;;;;;;5070552;28;20048;-63
2022/12/24 04:29:13;;;;;;;35.60;6.80;;;;;;;;;;5037954;28;20048;-63
2022/12/24 04:31:39;;;;;;;47.50;5.28;;;;;;;;;;5080279;28;20044;-64
2022/12/24 04:34:05;;;;;;;40.30;6.40;;;;;;;;;;5086048;28;20079;-64
2022/12/24 04:36:31;;;;;;;39.75;5.80;;;;;;;;;;5071556;28;20044;-64
2022/12/24 04:38:58;;;;;;;37.17;4.63;;;;;;;;;;5054193;28;20040;-64
2022/12/24 04:41:24;;;;;;;48.80;5.30;;;;;;;;;;5071743;28;20044;-64
2022/12/24 04:43:50;;;;;;;37.88;5.97;;;;;;;;;;5071203;28;20496;-63
2022/12/24 04:46:20;;;;;;;58.97;7.78;;;;;;;;;;5072112;28;20511;-64
2022/12/24 04:48:48;;;;;;;47.63;5.88;;;;;;;;;;5070571;28;20075;-65
2022/12/24 04:51:14;;;;;;;59.95;7.05;;;;;;;;;;5071463;28;20476;-65
2022/12/24 04:53:41;;;;;;;48.53;7.47;;;;;;;;;;5071679;28;20078;-63
2022/12/24 04:56:08;;;;;;;45.05;5.57;;;;;;;;;;5063382;28;20491;-64
2022/12/24 04:58:34;;;;;;;37.67;5.25;;;;;;;;;;5092057;28;20083;-64
2022/12/24 05:01:04;;;;;;;41.13;4.57;;;;;;;;;;5050303;28;20409;-64
2022/12/24 05:03:31;;;;;;;43.83;5.32;;;;;;;;;;5064406;28;20108;-64
2022/12/24 05:06:01;;;;;;;38.58;5.97;;;;;;;;;;5078683;28;20575;-64
2022/12/24 05:08:27;;;;;;;60.33;6.50;;;;;;;;;;5063060;28;20147;-64
2022/12/24 05:10:57;;;;;;;38.85;4.85;;;;;;;;;;5078203;28;20076;-64
2022/12/24 05:13:23;;;;;;;34.80;6.30;;;;;;;;;;5078195;28;20057;-65
2022/12/24 05:15:49;;;;;;;45.13;5.43;;;;;;;;;;5053598;28;20448;-64
2022/12/24 05:18:15;;;;;;;44.20;6.28;;;;;;;;;;5063733;28;20056;-64
2022/12/24 05:20:41;;;;;;;44.70;5.40;;;;;;;;;;5056571;28;20041;-64
2022/12/24 05:28:38;;;;;;;41.92;4.93;;;;;;;;;;5070673;28;20529;-64
2022/12/24 05:31:04;;;;;;;35.17;5.05;;;;;;;;;;5070924;28;20124;-64
2022/12/24 05:33:30;;;;;;;37.90;6.20;;;;;;;;;;5063210;28;20501;-64
2022/12/24 05:35:56;;;;;;;33.20;5.60;;;;;;;;;;5049525;28;20052;-64
2022/12/24 05:38:22;;;;;;;37.80;4.50;;;;;;;;;;5051338;28;20076;-64
2022/12/24 05:40:48;;;;;;;43.58;5.03;;;;;;;;;;5053914;28;20116;-64
2022/12/24 05:43:14;;;;;;;38.88;5.30;;;;;;;;;;5050939;28;20103;-64
2022/12/24 05:45:40;;;;;;;45.70;5.38;;;;;;;;;;5060629;28;20131;-64
2022/12/24 05:48:07;;;;;;;51.45;5.53;;;;;;;;;;5068057;28;20048;-65
2022/12/24 05:50:33;;;;;;;33.35;5.45;;;;;;;;;;5060521;28;20118;-64
2022/12/24 05:52:59;;;;;;;41.80;7.13;;;;;;;;;;5058766;28;20110;-64
2022/12/24 05:55:26;;;;;;;34.10;5.05;;;;;;;;;;5055409;28;20055;-63
2022/12/24 05:57:52;;;;;;;42.95;7.05;;;;;;;;;;5069387;28;20086;-64
2022/12/24 06:00:18;;;;;;;34.33;4.57;;;;;;;;;;5062628;28;20486;-64
2022/12/24 06:02:44;;;;;;;49.55;6.47;;;;;;;;;;5050342;28;20056;-64
2022/12/24 06:05:10;;;;;;;41.25;5.95;;;;;;;;;;5055926;28;20114;-64
2022/12/24 06:07:36;;;;;;;41.60;5.00;;;;;;;;;;5051378;28;20052;-63
2022/12/24 06:10:02;;;;;;;42.00;5.85;;;;;;;;;;5063990;28;20041;-65
2022/12/24 06:12:28;;;;;;;48.42;5.13;;;;;;;;;;5065899;28;20045;-64
2022/12/24 06:14:54;;;;;;;48.10;5.28;;;;;;;;;;5071814;28;20072;-64
2022/12/24 06:17:20;;;;;;;47.45;6.35;;;;;;;;;;5079964;28;20052;-64
2022/12/24 06:19:46;;;;;;;55.05;7.53;;;;;;;;;;5055965;28;20098;-64
2022/12/24 06:22:12;;;;;;;41.20;5.80;;;;;;;;;;5052873;28;20046;-64
2022/12/24 06:24:38;;;;;;;37.65;4.97;;;;;;;;;;5067705;28;20111;-64
2022/12/24 06:27:04;;;;;;;46.85;5.53;;;;;;;;;;5069071;28;20044;-64
2022/12/24 06:29:30;;;;;;;46.05;7.50;;;;;;;;;;5067070;28;20040;-64
2022/12/24 06:31:56;;;;;;;39.85;4.85;;;;;;;;;;5050960;28;20053;-64
2022/12/24 06:34:25;;;;;;;41.83;5.97;;;;;;;;;;5038687;28;20045;-64
2022/12/24 06:36:52;;;;;;;48.63;6.93;;;;;;;;;;5072375;28;20052;-64
2022/12/24 06:39:17;;;;;;;31.63;6.38;;;;;;;;;;5055885;28;20450;-64
2022/12/24 06:41:43;;;;;;;40.40;6.45;;;;;;;;;;5073975;28;20036;-64
2022/12/24 06:44:10;;;;;;;49.03;5.70;;;;;;;;;;5056098;28;20049;-63
2022/12/24 06:46:36;;;;;;;41.83;5.63;;;;;;;;;;5072826;28;20040;-63
2022/12/24 06:49:02;;;;;;;35.38;5.28;;;;;;;;;;5073268;28;20055;-64
2022/12/24 06:51:28;;;;;;;48.60;7.85;;;;;;;;;;5072300;28;20040;-63
2022/12/24 06:53:54;;;;;;;43.58;7.25;;;;;;;;;;5071247;28;20124;-64
2022/12/24 06:56:20;;;;;;;42.58;5.70;;;;;;;;;;5072644;28;20079;-63
2022/12/24 06:58:47;;;;;;;43.50;4.82;;;;;;;;;;5073059;28;20032;-63
2022/12/24 07:01:14;;;;;;;39.78;4.80;;;;;;;;;;5073479;28;20048;-63
2022/12/24 07:03:40;;;;;;;46.22;5.93;;;;;;;;;;5075146;28;20048;-63
2022/12/24 07:06:06;;;;;;;42.63;6.97;;;;;;;;;;5089973;28;20044;-63
2022/12/24 07:08:34;;;;;;;40.35;5.78;;;;;;;;;;5078570;28;20496;-63
2022/12/24 07:11:01;;;;;;;41.70;7.10;;;;;;;;;;5072808;28;20048;-63
2022/12/24 07:13:28;;;;;;;46.72;6.15;;;;;;;;;;5074404;28;20044;-63
2022/12/24 07:16:03;;;;;;;56.83;6.05;;;;;;;;;;5069357;28;20067;-64
2022/12/24 07:18:30;;;;;;;42.85;6.20;;;;;;;;;;5065393;28;20107;-64
2022/12/24 07:20:56;;;;;;;34.53;5.10;;;;;;;;;;5050247;28;20048;-64
2022/12/24 07:23:22;;;;;;;38.80;5.45;;;;;;;;;;5072303;28;20044;-64
2022/12/24 07:25:48;;;;;;;44.40;7.30;;;;;;;;;;5037372;28;20052;-64
2022/12/24 07:28:14;;;;;;;53.45;6.10;;;;;;;;;;5073863;28;20131;-63
2022/12/24 07:30:40;;;;;;;40.90;4.85;;;;;;;;;;5072959;28;20044;-64
2022/12/24 07:33:07;;;;;;;40.90;5.50;;;;;;;;;;5070137;28;20094;-64
2022/12/24 07:35:33;;;;;;;42.80;5.15;;;;;;;;;;5085484;28;20458;-64
2022/12/24 07:37:59;;;;;;;41.25;5.72;;;;;;;;;;5074268;28;20044;-64
2022/12/24 07:40:25;;;;;;;47.38;6.93;;;;;;;;;;5054480;28;20080;-64
2022/12/24 07:42:51;;;;;;;40.33;5.22;;;;;;;;;;5072764;28;20048;-64
2022/12/24 07:45:17;;;;;;;44.15;5.93;;;;;;;;;;5064626;28;20098;-64
2022/12/24 07:47:43;;;;;;;50.75;6.07;;;;;;;;;;5065507;28;20048;-64
2022/12/24 07:50:09;;;;;;;41.28;5.20;;;;;;;;;;5072582;28;20051;-64
2022/12/24 07:52:35;;;;;;;42.35;7.15;;;;;;;;;;5072634;28;20101;-64
2022/12/24 07:55:01;;;;;;;47.45;5.93;;;;;;;;;;5052037;28;20052;-64
2022/12/24 07:57:27;;;;;;;46.80;4.95;;;;;;;;;;5075602;28;20037;-64
2022/12/24 07:59:53;;;;;;;52.47;6.57;;;;;;;;;;5054769;28;20044;-64
2022/12/24 08:02:19;;;;;;;48.30;5.30;;;;;;;;;;5071765;28;20146;-64
2022/12/24 08:04:45;;;;;;;45.88;7.53;;;;;;;;;;5070177;28;20481;-64
2022/12/24 08:07:11;;;;;;;37.78;5.00;;;;;;;;;;5070851;28;20084;-64
2022/12/24 08:09:38;;;;;;;39.13;6.15;;;;;;;;;;5082563;28;20056;-64
2022/12/24 08:12:05;;;;;;;45.95;5.57;;;;;;;;;;5054484;28;20044;-65
2022/12/24 08:14:31;;;;;;;41.47;5.05;;;;;;;;;;5070334;28;20056;-64
2022/12/24 08:16:57;;;;;;;45.33;5.53;;;;;;;;;;5068809;28;20154;-63
2022/12/24 08:19:23;;;;;;;58.97;5.55;;;;;;;;;;5072153;28;20090;-63
2022/12/24 08:21:50;;;;;;;44.90;6.00;;;;;;;;;;5071675;28;20448;-63
2022/12/24 08:24:16;;;;;;;47.63;6.00;;;;;;;;;;5073958;28;20124;-62
2022/12/24 08:26:42;;;;;;;40.08;5.45;;;;;;;;;;5062137;28;20575;-63
2022/12/24 08:29:09;;;;;;;37.10;4.97;;;;;;;;;;5072847;28;20124;-63
2022/12/24 08:31:35;;;;;;;37.08;5.40;;;;;;;;;;5071446;28;20123;-62
2022/12/24 08:34:05;;;;;;;37.97;5.97;;;;;;;;;;5071701;28;20389;-64
2022/12/24 08:36:31;;;;;;;39.33;6.50;;;;;;;;;;5075364;28;20044;-63
2022/12/24 08:38:58;;;;;;;38.63;7.38;;;;;;;;;;5064445;28;20447;-62
2022/12/24 08:41:24;;;;;;;47.30;6.13;;;;;;;;;;5046311;28;20449;-62
2022/12/24 08:43:53;;;;;;;41.97;5.22;;;;;;;;;;5050863;28;20515;-63
2022/12/24 08:46:19;;;;;;;46.33;5.80;;;;;;;;;;5084185;28;20071;-63
2022/12/24 08:48:45;;;;;;;43.28;5.38;;;;;;;;;;5082055;28;20044;-63
2022/12/24 08:51:11;;;;;;;46.97;6.57;;;;;;;;;;5075164;28;20036;-62
2022/12/24 08:53:38;;;;;;;42.00;5.90;;;;;;;;;;5071939;28;20052;-63
2022/12/24 08:56:05;;;;;;;47.00;6.45;;;;;;;;;;5087301;28;20411;-62
2022/12/24 08:58:31;;;;;;;46.25;8.95;;;;;;;;;;5067157;28;20431;-63
2022/12/24 09:00:57;;;;;;;51.47;6.70;;;;;;;;;;5063979;28;20049;-63
2022/12/24 09:03:23;;;;;;;46.08;5.13;;;;;;;;;;5063753;28;20714;-62
2022/12/24 09:05:49;;;;;;;41.95;6.35;;;;;;;;;;5072267;28;20526;-63
2022/12/24 09:08:16;;;;;;;52.03;6.25;;;;;;;;;;5061519;28;20087;-62
2022/12/24 09:10:42;;;;;;;36.75;5.28;;;;;;;;;;5071222;28;20124;-63
2022/12/24 09:13:08;;;;;;;27.65;3.78;;;;;;;;;;5072076;28;20140;-63
2022/12/24 09:15:34;;;;;;;39.42;5.28;;;;;;;;;;5068637;28;20469;-62
2022/12/24 09:18:00;;;;;;;34.33;5.00;;;;;;;;;;5071544;28;20119;-63
2022/12/24 09:20:26;;;;;;;32.50;3.53;;;;;;;;;;5069778;28;20037;-63
2022/12/24 09:22:52;;;;;;;36.60;4.30;;;;;;;;;;5071471;28;20395;-63
2022/12/24 09:25:19;;;;;;;32.35;4.63;;;;;;;;;;5071746;28;20497;-62
2022/12/24 09:27:45;;;;;;;41.17;5.43;;;;;;;;;;5071409;28;20052;-63
2022/12/24 09:30:11;;;;;;;44.28;5.38;;;;;;;;;;5071546;28;20499;-63
2022/12/24 09:32:37;;;;;;;46.88;5.57;;;;;;;;;;5079860;28;20045;-63
2022/12/24 09:35:04;;;;;;;43.45;6.63;;;;;;;;;;5083450;28;20051;-63
2022/12/24 09:37:30;;;;;;;37.17;5.65;;;;;;;;;;5054311;28;20435;-62
2022/12/24 09:42:56;;;;;;;45.85;6.72;;;;;;;;;;4990796;28;20061;-63
2022/12/24 09:45:31;;;;;;;46.63;6.22;;;;;;;;;;4993231;28;20050;-63
2022/12/24 09:48:13;;;;;;;42.25;8.55;;;;;;;;;;4988164;28;20047;-63
2022/12/24 09:50:50;;;;;;;41.53;7.20;;;;;;;;;;4978280;28;20042;-64
2022/12/24 09:53:23;;;;;;;39.95;5.53;;;;;;;;;;4990945;28;20046;-63
2022/12/24 09:55:51;;;;;;;45.88;7.38;;;;;;;;;;4995827;28;20108;-64
2022/12/24 09:58:23;;;;;;;45.10;6.35;;;;;;;;;;4990369;28;20058;-62
2022/12/24 10:00:49;;;;;;;46.50;5.90;;;;;;;;;;4998468;28;20042;-63
2022/12/24 10:03:16;;;;;;;41.10;5.55;;;;;;;;;;5007739;28;20121;-62
2022/12/24 10:05:52;;;;;;;39.70;6.55;;;;;;;;;;4992396;28;20523;-63
2022/12/24 10:08:34;;;;;;;29.52;5.75;;;;;;;;;;4994346;28;20121;-62
2022/12/24 10:11:18;;;;;;;37.78;4.88;;;9.30;99.90;;;;;;5001585;28;20052;-62
2022/12/24 10:13:54;;;;;;;45.08;5.32;;;;;;;;;;5030835;28;20049;-63
2022/12/24 10:16:20;;;;;;;47.15;9.30;;;;;;;;;;5003397;28;20081;-62
2022/12/24 10:19:06;;;;;;;39.30;6.60;;;;;;;;;;5009967;28;20152;-63
2022/12/24 10:21:53;;;;;;;35.28;4.78;;;;;;;;;;4978082;28;20204;-63
2022/12/24 10:24:31;;;;;;;44.60;4.93;;;;;;;;;;4994234;28;20117;-63
2022/12/24 10:27:13;;;;;;;45.00;5.38;;;;;;;;;;4989338;28;20039;-63
2022/12/24 10:29:41;;;;;;;28.30;4.40;;;;;;;;;;4994350;28;20050;-64
2022/12/24 10:32:07;;;;;;;30.63;4.43;;;;;;;;;;4995340;28;20132;-63
2022/12/24 10:34:37;;;;;;;42.45;6.30;;;;;;;;;;4977625;28;20129;-63
2022/12/24 10:37:03;;;;;;;;;;;9.00;99.90;;;;;;4995198;28;20549;-63
2022/12/24 10:39:30;;;;;;;34.22;4.25;;;;;;;;;;4997101;28;19921;-62
2022/12/24 10:41:56;;;;;;;48.20;6.60;;;;;;;;;;5009308;28;20486;-63
2022/12/24 10:44:24;;;;;;;39.05;4.65;;;;;;;;;;5013528;28;20090;-63
2022/12/24 10:46:50;;;;;;;37.65;5.78;;;;;;;;;;5014380;28;20084;-64
2022/12/24 10:49:19;;;;;;;44.35;5.13;;;;;;;;;;5014326;28;20406;-63
2022/12/24 10:51:45;;;;;;;34.30;4.65;;;;;;;;;;4998485;28;20056;-64
2022/12/24 10:54:16;;;;;;;41.92;4.43;;;;;;;;;;4995811;28;20128;-64
2022/12/24 10:56:43;;;;;;;45.30;5.10;;;;;;;;;;5013051;28;20042;-64
2022/12/24 10:59:30;;;;;;;41.10;4.68;;;;;;;;;;5012940;28;20092;-63
2022/12/24 11:01:57;;;;;;;41.83;6.30;;;;;;;;;;5010037;28;20061;-64
2022/12/24 11:04:24;;;;;;;30.30;6.43;;;;;;;;;;4997749;28;20049;-64
2022/12/24 11:06:56;;;;;;;56.30;8.40;;;;;;;;;;5026481;28;20046;-64
2022/12/24 11:09:42;;;;;;;53.58;7.75;;;;;;;;;;4997772;28;20045;-63
2022/12/24 11:12:20;;;;;;;32.20;4.40;;;;;;;;;;5011170;28;20625;-63
2022/12/24 11:14:46;;;;;;;32.17;6.57;;;;;;;;;;4996711;28;20054;-64
2022/12/24 11:17:22;;;;;;;39.42;7.32;;;;;;;;;;5012044;28;20129;-64
2022/12/24 11:19:49;;;;;;;37.15;5.90;;;;;;;;;;5012720;28;20129;-64
2022/12/24 11:22:18;;;;;;;49.35;7.22;;;;;;;;;;5014174;28;20124;-63
2022/12/24 11:24:45;;;;;;;45.67;6.30;;;;;;;;;;5010682;28;20064;-63
2022/12/24 11:27:26;;;;;;;32.88;4.85;;;;;;;;;;5012258;28;20050;-63
2022/12/24 11:29:52;;;;;;;36.72;5.65;;;;;;;;;;5008468;28;20042;-64
2022/12/24 11:32:20;;;;;;;37.60;5.50;;;;;;;;;;5012670;28;20395;-63
2022/12/24 11:34:46;;;;;;;39.35;5.65;;;;;;;;;;5014789;28;20046;-63
2022/12/24 11:37:16;;;;;;;55.40;6.68;;;;;;;;;;5012394;28;20085;-63
2022/12/24 11:39:45;;;;;;;;;;;9.80;99.90;;;;;;5014715;28;20046;-64
2022/12/24 11:42:30;;;;;;;40.42;5.22;;;;;;;;;;5014132;28;19921;-63
2022/12/24 11:44:57;;;;;;;40.88;5.50;;;;;;;;;;5012588;28;20049;-63
2022/12/24 11:47:37;;;;;;;31.42;3.78;;;;;;;;;;5000577;28;20482;-63
2022/12/24 11:50:34;;;;;;;45.87;6.50;;;9.70;99.90;;;;;;5014198;28;20046;-63
2022/12/24 11:53:03;;;;;;;28.27;4.40;;;;;;;;;;5014296;28;20041;-63
2022/12/24 11:55:41;;;;;;;29.13;4.50;;;;;;;;;;5010475;28;20049;-63
2022/12/24 11:58:17;;;;;;;35.90;4.65;;;;;;;;;;5012254;28;20049;-63
2022/12/24 12:00:44;;;;;;;36.17;4.93;;;;;;;;;;5011363;28;20494;-64
2022/12/24 12:03:23;;;;;;;28.30;4.65;;;;;;;;;;5011763;28;20049;-63
2022/12/24 12:05:50;;;;;;;32.55;4.90;;;;;;;;;;5015256;28;20045;-64
2022/12/24 12:08:18;;;;;;;33.92;5.25;;;;;;;;;;5015217;28;20056;-63
2022/12/24 12:10:45;;;;;;;22.23;3.97;;;;;;;;;;4996035;28;20490;-64
2022/12/24 12:13:13;;;;;;;31.60;6.28;;;;;;;;;;5012535;28;20458;-63
2022/12/24 12:16:09;;;;;;;30.60;4.85;;;9.90;99.90;;;;;;4993999;28;20104;-64
2022/12/24 12:18:38;;;;;;;32.03;5.18;;;;;;;;;;5012186;28;20050;-63
2022/12/24 12:21:06;;;;;;;30.98;4.63;;;;;;;;;;5012396;28;20057;-62
2022/12/24 12:23:34;;;;;;;26.02;3.95;;;;;;;;;;5011726;28;20064;-62
2022/12/24 12:26:06;;;;;;;48.58;6.18;;;;;;;;;;5012800;28;20075;-62
2022/12/24 12:28:37;;;;;;;36.47;5.75;;;;;;;;;;5010959;28;20050;-62
2022/12/24 12:31:10;;;;;;;32.15;4.93;;;;;;;;;;5011912;28;20505;-63
2022/12/24 12:33:45;;;;;;;33.50;4.50;;;;;;;;;;5011401;28;20050;-63
2022/12/24 12:36:13;;;;;;;25.92;4.10;;;;;;;;;;5009971;28;20438;-63
2022/12/24 12:38:39;;;;;;;27.77;4.82;;;;;;;;;;5016404;28;20097;-64
2022/12/24 12:41:21;;;;;;;40.47;7.03;;;;;;;;;;5012834;28;20065;-62
2022/12/24 12:43:53;;;;;;;62.17;24.20;;;;;;;;;;5012198;28;20200;-62
2022/12/24 12:46:25;;;;;;;35.88;5.88;;;;;;;;;;4991278;28;20046;-63
2022/12/24 12:49:07;;;;;;;37.20;5.90;;;;;;;;;;5021707;28;20081;-63
2022/12/24 12:51:41;;;;;;;32.40;6.43;;;;;;;;;;5005497;28;20068;-63
2022/12/24 12:54:07;;;;;;;33.33;3.85;;;;;;;;;;5012178;28;20046;-62
2022/12/24 12:56:38;;;;;;;38.55;4.43;;;;;;;;;;5010629;28;20475;-62
2022/12/24 12:59:07;;;;;;;30.63;5.22;;;;;;;;;;5011308;28;20549;-61
2022/12/24 13:01:39;;;;;;;34.90;5.55;;;;;;;;;;5009742;28;20038;-61
2022/12/24 13:04:08;;;;;;;30.98;4.82;;;;;;;;;;5011475;28;20096;-61
2022/12/24 13:06:39;;;;;;;24.42;4.78;;;;;;;;;;4994746;28;20050;-62
2022/12/24 13:09:05;;;;;;;;;;;;;;;;;;5001639;28;20436;-61
2022/12/24 13:12:03;;;;;;;23.17;4.70;;;;;;;;;;5008280;28;20062;-61
2022/12/24 13:14:38;;;;;;;30.63;5.28;;;;;;;;;;4983632;28;20057;-61
2022/12/24 13:17:10;;;;;;;39.30;6.32;;;;;;;;;;4974083;28;20519;-61
2022/12/24 13:19:36;;;;;;;25.50;5.20;;;;;;;;;;4990034;28;20081;-61
2022/12/24 13:22:02;;;;;;;24.88;3.40;;;;;;;;;;4988854;28;20121;-61
2022/12/24 13:24:29;;;;;;;22.27;3.45;;;;;;;;;;4995724;28;20092;-61
2022/12/24 13:27:04;;;;;;;29.48;4.40;;;;;;;;;;4989108;28;20140;-61
2022/12/24 13:29:36;;;;;;;29.70;4.05;;;;;;;;;;4990878;28;20108;-61
2022/12/24 13:32:20;;;;;;;27.13;5.10;;;;;;;;;;4982076;28;20130;-61
2022/12/24 13:34:49;;;;;;;27.63;4.65;;;;;;;;;;4988803;28;20046;-61
2022/12/24 13:40:08;;;;;;;24.45;4.50;;;9.90;99.90;;;;;;5094362;22;20067;-61
2022/12/24 13:43:05;;;;;;;26.55;3.90;;;10.20;99.90;;;;;;5060643;28;20055;-61
2022/12/24 13:45:31;;;;;;;22.13;3.58;;;;;;;;;;5075843;28;20052;-61
2022/12/24 13:48:05;;;;;;;19.15;3.15;;;;;;;;;;5072968;28;20044;-62
2022/12/24 13:50:39;;;;;;;25.02;3.60;;;;;;;;;;5051765;28;20048;-61
2022/12/24 13:53:09;;;;;;;23.25;4.30;;;;;;;;;;5057539;28;20045;-61
2022/12/24 13:55:35;;;;;;;19.85;2.95;;;;;;;;;;5075201;28;20148;-61
2022/12/24 13:58:01;;;;;;;18.98;3.20;;;;;;;;;;5055471;28;20054;-61
2022/12/24 14:00:33;;;;;;;22.70;2.78;;;;;;;;;;5074850;28;20040;-61
2022/12/24 14:02:59;;;;;;;28.90;4.63;;;;;;;;;;5070602;28;20544;-61
2022/12/24 14:05:27;;;;;;;28.60;5.35;;;;;;;;;;5071991;28;20094;-61
2022/12/24 14:07:57;;;;;;;25.38;4.70;;;;;;;;;;5058080;28;20048;-61
2022/12/24 14:10:31;;;;;;;19.25;3.20;;;;;;;;;;5074872;28;20048;-62
2022/12/24 14:12:57;;;;;;;21.83;3.63;;;;;;;;;;5075168;28;20049;-61
2022/12/24 14:15:42;;;;;;;20.73;3.40;;;;;;;;;;5073372;28;20048;-62
2022/12/24 14:18:08;;;;;;;21.85;5.20;;;;;;;;;;5056618;28;20049;-62
2022/12/24 14:20:36;;;;;;;22.13;4.60;;;;;;;;;;5057423;28;20041;-62
2022/12/24 14:23:06;;;;;;;21.08;3.30;;;;;;;;;;5057097;28;20051;-61
2022/12/24 14:25:35;;;;;;;20.48;5.18;;;;;;;;;;5044008;28;20088;-61
2022/12/24 14:28:06;;;;;;;22.92;5.90;;;;;;;;;;5040227;28;20083;-61
2022/12/24 14:30:32;;;;;;;23.25;3.53;;;;;;;;;;5047289;28;20564;-62
2022/12/24 14:32:58;;;;;;;16.05;2.90;;;;;;;;;;5054009;28;20102;-61
2022/12/24 14:35:35;;;;;;;22.75;4.65;;;;;;;;;;5055146;28;20072;-62
2022/12/24 14:38:03;;;;;;;24.30;4.95;;;;;;;;;;5065376;28;20072;-62
2022/12/24 14:40:30;;;;;;;19.70;3.85;;;;;;;;;;5068616;28;20048;-62
2022/12/24 14:43:12;;;;;;;25.45;3.88;;;;;;;;;;5054430;28;20052;-62
2022/12/24 14:45:38;;;;;;;22.50;3.75;;;;;;;;;;5072972;28;20043;-62
2022/12/24 14:48:21;;;;;;;27.55;4.38;;;;;;;;;;5062411;28;20048;-62
2022/12/24 14:50:54;;;;;;;19.02;3.85;;;;;;;;;;5053386;28;20040;-62
2022/12/24 14:53:28;;;;;;;26.70;5.63;;;;;;;;;;5055134;28;20083;-63